De Kooy, Netherlands

11:39 PM CET on December 25, 2014 (GMT +0100)
De Kooy Navy | Change Station
CLOSE
Current Station
Airport
Location: De Kooy,
Elevation: 3 ft
Nearby Weather Stations

Elev 3 ft 52.93 °N, 4.78 °E | Updated 14 minutes ago

Mostly Cloudy
Mostly Cloudy
41 °F
Feels Like 36 °F
N
8
Wind Variable Wind from NW

Today
High -- | Low -- °F
--% Chance of Precip.
Yesterday
High -- | Low -- °F
Precip. -- in
8:53 AM 4:28 PM
Waxing Crescent, 20% visible
Pressure 30.33 in
Visibility 6.2 miles
Clouds Few 5000 ft
Scattered Clouds 5600 ft
Mostly Cloudy 7500 ft
Windchill 36 °F
Dew Point 36 °F
Humidity 81%
Rainfall 0.00 in
Snow Depth Not available.
UV 0 out of 12
Pollen Not available.
Air Quality Not available.
Flu Activity Not available.
METAR EHKD 252225Z AUTO 31007KT 9999 FEW050 SCT056 BKN075 05/02 Q1027 BLU

More Conditions Fewer Conditions

Pressure 30.33 in
Visibility 6.2 miles
Clouds Few 5000 ft
Scattered Clouds 5600 ft
Mostly Cloudy 7500 ft
Windchill 36 °F
Dew Point 36 °F
Humidity 81%
Rainfall 0.00 in
Snow Depth Not available.
UV 0 out of 12
Pollen Not available.
Air Quality Not available.
Flu Activity Not available.
METAR EHKD 252225Z AUTO 31007KT 9999 FEW050 SCT056 BKN075 05/02 Q1027 BLU

More Conditions Fewer Conditions

10-Day Weather Forecast

Almanac

Astronomy

Dec. 25, 2014 Rise Set
Actual Time
Civil Twilight
Nautical Twilight
Astronomical Twilight
Moon
Length of Visible Light
Length of Day
Tomorrow will be .
, % of the Moon is Illuminated

Today's Extremes

Country Highs Country Lows

Community

WunderPhotos

Upload Photos

1,780,430 photos uploaded!

WunderBlogs® & News

Nearby

Air Quality

  Air Quality AQ Index Pollutant
Not available.

Snow Depth

Station Depth Elevation

Earthquake Activity

City Distance Mag. Time & Date
Minimum magnitude displayed is 2.5.

Coastal Water Temperatures

Place Temperature

Nearby Weather Stations